createdAt,value
2023-02-06T00:01:44.371Z,4.20
2023-02-06T00:04:13.116Z,4.15
2023-02-06T00:06:41.568Z,4.14
2023-02-06T00:09:11.716Z,4.11
2023-02-06T00:11:39.485Z,4.09
2023-02-06T00:14:07.443Z,4.12
2023-02-06T00:16:36.891Z,4.09
2023-02-06T00:19:04.952Z,4.06
2023-02-06T00:21:33.248Z,4.03
2023-02-06T00:24:02.699Z,4.06
2023-02-06T00:26:31.950Z,4.05
2023-02-06T00:28:59.904Z,4.05
2023-02-06T00:31:27.802Z,4.02
2023-02-06T00:33:55.710Z,4.00
2023-02-06T00:36:23.670Z,3.97
2023-02-06T00:38:53.060Z,3.91
2023-02-06T00:41:21.539Z,3.91
2023-02-06T00:43:51.571Z,3.89
2023-02-06T00:46:19.636Z,3.88
2023-02-06T00:48:47.578Z,3.91
2023-02-06T00:51:15.498Z,3.82
2023-02-06T00:53:43.393Z,3.80
2023-02-06T00:56:11.143Z,3.73
2023-02-06T00:58:38.928Z,3.72
2023-02-06T01:01:08.607Z,3.75
2023-02-06T01:03:36.511Z,3.76
2023-02-06T01:06:04.712Z,3.77
2023-02-06T01:08:32.522Z,3.75
2023-02-06T01:11:00.815Z,3.73
2023-02-06T01:13:28.944Z,3.71
2023-02-06T01:15:56.825Z,3.70
2023-02-06T01:18:26.002Z,3.67
2023-02-06T01:20:53.842Z,3.66
2023-02-06T01:23:21.665Z,3.62
2023-02-06T01:25:49.487Z,3.64
2023-02-06T01:28:17.559Z,3.64
2023-02-06T01:30:45.493Z,3.62
2023-02-06T01:33:13.256Z,3.57
2023-02-06T01:35:42.318Z,3.61
2023-02-06T01:38:10.198Z,3.64
2023-02-06T01:40:38.712Z,3.61
2023-02-06T01:43:18.334Z,3.60
2023-02-06T01:45:47.790Z,3.55
2023-02-06T01:48:20.273Z,3.56
2023-02-06T01:50:54.707Z,3.57
2023-02-06T01:53:24.604Z,3.59
2023-02-06T01:55:59.363Z,3.55
2023-02-06T01:58:34.402Z,3.56
2023-02-06T02:01:04.191Z,3.60
2023-02-06T02:03:36.855Z,3.66
2023-02-06T02:06:11.830Z,3.71
2023-02-06T02:08:43.082Z,3.68
2023-02-06T02:11:18.468Z,3.70
2023-02-06T02:13:47.181Z,3.69
2023-02-06T02:16:26.650Z,3.78
2023-02-06T02:19:31.765Z,3.82
2023-02-06T02:22:39.778Z,3.84
2023-02-06T02:26:16.472Z,3.83
2023-02-06T02:29:49.088Z,3.77
2023-02-06T02:32:52.734Z,3.77
2023-02-06T02:35:42.244Z,3.78
2023-02-06T02:38:24.836Z,3.70
2023-02-06T02:41:05.105Z,3.64
2023-02-06T02:43:43.566Z,3.54
2023-02-06T02:46:22.578Z,3.47
2023-02-06T02:48:55.144Z,3.45
2023-02-06T02:51:25.389Z,3.44
2023-02-06T02:53:56.714Z,3.38
2023-02-06T02:56:26.688Z,3.37
2023-02-06T02:59:02.659Z,3.31
2023-02-06T03:01:38.335Z,3.31
2023-02-06T03:04:15.296Z,3.24
2023-02-06T03:07:06.432Z,3.18
2023-02-06T03:09:58.573Z,3.20
2023-02-06T03:12:39.035Z,3.16
2023-02-06T03:15:29.410Z,3.23
2023-02-06T03:18:07.350Z,3.25
2023-02-06T03:20:42.042Z,3.27
2023-02-06T03:23:17.082Z,3.25
2023-02-06T03:25:50.837Z,3.24
2023-02-06T03:28:26.130Z,3.23
2023-02-06T03:31:00.183Z,3.27
2023-02-06T03:33:36.201Z,3.34
2023-02-06T03:36:05.345Z,3.42
2023-02-06T03:38:34.612Z,3.49
2023-02-06T03:41:04.607Z,3.54
2023-02-06T03:43:33.025Z,3.54
2023-02-06T03:46:06.113Z,3.55
2023-02-06T03:48:41.090Z,3.54
2023-02-06T03:51:16.411Z,3.47
2023-02-06T03:53:48.826Z,3.48
2023-02-06T03:56:32.298Z,3.48
2023-02-06T03:59:00.292Z,3.42
2023-02-06T04:01:28.356Z,3.34
2023-02-06T04:03:57.438Z,3.26
2023-02-06T04:06:25.507Z,3.22
2023-02-06T04:08:54.958Z,3.11
2023-02-06T04:11:22.795Z,3.02
2023-02-06T04:13:50.657Z,3.03
2023-02-06T04:16:19.200Z,3.05
2023-02-06T04:18:47.259Z,3.08
2023-02-06T04:21:15.187Z,3.13
2023-02-06T04:23:42.989Z,3.08
2023-02-06T04:26:12.279Z,2.99
2023-02-06T04:28:40.010Z,2.98
2023-02-06T04:31:07.980Z,2.96
2023-02-06T04:33:35.887Z,2.89
2023-02-06T04:36:04.185Z,2.84
2023-02-06T04:38:32.308Z,2.85
2023-02-06T04:41:03.513Z,2.84
2023-02-06T04:43:33.617Z,2.85
2023-02-06T04:46:01.668Z,2.83
2023-02-06T04:48:29.519Z,2.84
2023-02-06T04:50:57.282Z,2.92
2023-02-06T04:53:25.039Z,2.92
2023-02-06T04:55:52.764Z,2.65
2023-02-06T04:58:20.620Z,2.50
2023-02-06T05:00:50.422Z,2.41
2023-02-06T05:03:18.279Z,2.52
2023-02-06T05:05:46.153Z,2.73
2023-02-06T05:08:13.992Z,2.73
2023-02-06T05:10:41.807Z,2.60
2023-02-06T05:13:09.713Z,2.55
2023-02-06T05:15:38.880Z,2.50
2023-02-06T05:18:08.397Z,2.54
2023-02-06T05:20:36.345Z,2.47
2023-02-06T05:23:04.558Z,2.61
2023-02-06T05:25:32.579Z,2.63
2023-02-06T05:28:00.581Z,2.78
2023-02-06T05:30:28.909Z,2.82
2023-02-06T05:32:58.028Z,2.86
2023-02-06T05:35:27.782Z,2.94
2023-02-06T05:37:57.482Z,3.01
2023-02-06T05:40:25.970Z,3.03
2023-02-06T05:42:54.369Z,3.00
2023-02-06T05:45:22.857Z,2.92
2023-02-06T05:47:51.030Z,2.81
2023-02-06T05:50:19.526Z,2.76
2023-02-06T05:52:54.222Z,2.66
2023-02-06T05:55:22.426Z,2.59
2023-02-06T05:57:50.303Z,2.64
2023-02-06T06:00:18.927Z,2.56
2023-02-06T06:02:46.861Z,2.49
2023-02-06T06:05:14.732Z,2.39
2023-02-06T06:07:42.544Z,2.45
2023-02-06T06:10:12.989Z,2.34
2023-02-06T06:12:40.850Z,2.40
2023-02-06T06:17:59.475Z,2.46
2023-02-06T06:20:27.265Z,2.41
2023-02-06T06:22:55.309Z,2.48
2023-02-06T06:28:10.318Z,2.38
2023-02-06T06:30:38.324Z,2.34
2023-02-06T06:33:06.442Z,2.50
2023-02-06T06:35:35.234Z,2.71
2023-02-06T06:38:03.206Z,2.71
2023-02-06T06:40:32.386Z,2.70
2023-02-06T06:43:00.139Z,2.74
2023-02-06T06:45:28.086Z,2.72
2023-02-06T06:47:55.988Z,2.81
2023-02-06T06:50:23.739Z,2.96
2023-02-06T06:52:51.870Z,3.02
2023-02-06T06:55:20.296Z,3.15
2023-02-06T06:57:49.512Z,3.18
2023-02-06T07:00:18.006Z,3.09
2023-02-06T07:02:45.897Z,2.98
2023-02-06T07:05:14.101Z,2.90
2023-02-06T07:07:42.076Z,2.92
2023-02-06T07:10:13.232Z,3.05
2023-02-06T07:12:41.426Z,3.05
2023-02-06T07:15:11.800Z,2.96
2023-02-06T07:17:40.047Z,2.93
2023-02-06T07:20:12.415Z,2.87
2023-02-06T07:22:40.398Z,2.90
2023-02-06T07:25:12.141Z,3.01
2023-02-06T07:27:40.054Z,3.16
2023-02-06T07:30:12.294Z,3.18
2023-02-06T07:32:40.748Z,3.24
2023-02-06T07:35:12.024Z,3.45
2023-02-06T07:37:39.977Z,3.59
2023-02-06T07:40:11.624Z,3.79
2023-02-06T07:42:40.213Z,3.89
2023-02-06T07:45:26.837Z,3.75
2023-02-06T07:47:54.723Z,3.65
2023-02-06T07:50:22.541Z,3.65
2023-02-06T07:52:50.812Z,3.59
2023-02-06T07:55:18.798Z,3.53
2023-02-06T07:57:46.643Z,3.66
2023-02-06T08:00:16.175Z,3.71
2023-02-06T08:02:45.406Z,3.76
2023-02-06T08:05:13.333Z,3.79
2023-02-06T08:07:41.296Z,3.83
2023-02-06T08:10:12.903Z,3.83
2023-02-06T08:12:41.087Z,3.94
2023-02-06T08:15:12.976Z,3.93
2023-02-06T08:17:42.743Z,3.95
2023-02-06T08:20:12.849Z,4.12
2023-02-06T08:22:41.052Z,4.08
2023-02-06T08:25:09.468Z,4.12
2023-02-06T08:27:38.417Z,4.19
2023-02-06T08:30:08.129Z,4.21
2023-02-06T08:32:36.237Z,4.42
2023-02-06T08:35:04.695Z,4.63
2023-02-06T08:37:34.010Z,4.76
2023-02-06T08:40:01.970Z,4.80
2023-02-06T08:42:29.864Z,4.79
2023-02-06T08:44:57.867Z,4.93
2023-02-06T08:47:25.928Z,4.86
2023-02-06T08:49:54.644Z,4.86
2023-02-06T08:52:23.329Z,5.11
2023-02-06T08:54:52.895Z,5.11
2023-02-06T08:57:20.687Z,5.08
2023-02-06T08:59:49.583Z,5.26
2023-02-06T09:02:17.523Z,5.34
2023-02-06T09:04:45.477Z,5.36
2023-02-06T09:07:14.690Z,5.58
2023-02-06T09:09:43.590Z,5.64
2023-02-06T09:12:12.791Z,5.70
2023-02-06T09:14:40.602Z,5.97
2023-02-06T09:17:08.992Z,6.16
2023-02-06T09:19:37.069Z,6.27
2023-02-06T09:22:06.945Z,6.41
2023-02-06T09:24:35.220Z,6.36
2023-02-06T09:27:03.065Z,6.11
2023-02-06T09:29:32.588Z,6.23
2023-02-06T09:32:01.364Z,6.25
2023-02-06T09:34:29.889Z,6.39
2023-02-06T09:36:58.251Z,6.55
2023-02-06T09:39:26.472Z,6.69
2023-02-06T09:42:00.136Z,6.89
2023-02-06T09:44:35.609Z,6.76
2023-02-06T09:47:18.983Z,6.86
2023-02-06T09:49:53.100Z,6.94
2023-02-06T09:52:50.160Z,7.08
2023-02-06T09:55:29.091Z,7.21
2023-02-06T09:58:09.896Z,7.29
2023-02-06T10:00:47.488Z,7.31
2023-02-06T10:03:56.075Z,6.95
2023-02-06T10:06:39.149Z,6.96
2023-02-06T10:09:18.120Z,7.08
2023-02-06T10:11:54.000Z,7.21
2023-02-06T10:14:39.402Z,7.40
2023-02-06T10:17:20.827Z,7.45
2023-02-06T10:19:58.634Z,7.53
2023-02-06T10:22:40.774Z,7.62
2023-02-06T10:25:27.282Z,7.77
2023-02-06T10:28:01.627Z,7.82
2023-02-06T10:31:00.322Z,7.78
2023-02-06T10:33:45.370Z,7.84
2023-02-06T10:36:40.090Z,7.81
2023-02-06T10:39:45.516Z,7.96
2023-02-06T10:42:23.683Z,8.08
2023-02-06T10:45:18.401Z,7.91
2023-02-06T10:47:55.893Z,7.62
2023-02-06T10:50:32.707Z,7.58
2023-02-06T10:53:13.913Z,7.52
2023-02-06T10:55:52.195Z,7.55
2023-02-06T10:58:27.854Z,7.13
2023-02-06T11:00:58.699Z,7.04
2023-02-06T11:03:33.112Z,7.13
2023-02-06T11:06:03.270Z,7.18
2023-02-06T11:08:40.031Z,7.37
2023-02-06T11:11:21.170Z,7.58
2023-02-06T11:13:55.092Z,7.40
2023-02-06T11:16:27.024Z,7.49
2023-02-06T11:19:01.980Z,7.63
2023-02-06T11:21:55.652Z,7.65
2023-02-06T11:24:28.164Z,7.85
2023-02-06T11:27:01.340Z,7.97
2023-02-06T11:29:37.116Z,8.00
2023-02-06T11:32:07.244Z,8.01
2023-02-06T11:34:51.402Z,8.19
2023-02-06T11:37:34.844Z,8.35
2023-02-06T11:40:24.747Z,8.52
2023-02-06T11:43:15.045Z,8.33
2023-02-06T11:45:47.530Z,8.52
2023-02-06T11:48:35.271Z,8.51
2023-02-06T11:51:06.004Z,8.55
2023-02-06T11:53:37.421Z,8.44
2023-02-06T11:56:17.143Z,8.39
2023-02-06T11:58:46.378Z,8.43
2023-02-06T12:01:21.540Z,8.65
2023-02-06T12:03:57.783Z,8.77
2023-02-06T12:06:32.575Z,8.92
2023-02-06T12:09:09.008Z,9.12
2023-02-06T12:11:55.127Z,9.04
2023-02-06T12:14:34.744Z,8.94
2023-02-06T12:17:10.051Z,8.91
2023-02-06T12:19:49.802Z,8.88
2023-02-06T12:22:24.982Z,8.95
2023-02-06T12:25:00.074Z,9.12
2023-02-06T12:27:38.840Z,9.16
2023-02-06T12:30:29.306Z,9.44
2023-02-06T12:33:09.855Z,9.75
2023-02-06T12:35:46.256Z,9.86
2023-02-06T12:38:26.343Z,9.22
2023-02-06T12:41:19.437Z,9.69
2023-02-06T12:43:55.105Z,9.84
2023-02-06T12:46:26.491Z,9.90
2023-02-06T12:49:07.739Z,9.94
2023-02-06T12:51:43.504Z,9.57
2023-02-06T12:54:17.323Z,9.50
2023-02-06T12:56:54.250Z,9.39
2023-02-06T12:59:58.003Z,9.31
2023-02-06T13:02:57.922Z,9.20
2023-02-06T13:05:32.438Z,9.40
2023-02-06T13:08:08.635Z,9.38
2023-02-06T13:10:38.269Z,9.34
2023-02-06T13:13:28.176Z,9.39
2023-02-06T13:16:00.398Z,9.44
2023-02-06T13:18:52.742Z,9.17
2023-02-06T13:21:28.639Z,9.30
2023-02-06T13:24:18.736Z,9.17
2023-02-06T13:27:22.557Z,9.22
2023-02-06T13:30:39.839Z,9.10
2023-02-06T13:33:19.439Z,9.18
2023-02-06T13:36:00.315Z,9.19
2023-02-06T13:38:38.738Z,9.18
2023-02-06T13:41:31.224Z,9.05
2023-02-06T13:44:06.624Z,9.16
2023-02-06T13:47:27.751Z,9.21
2023-02-06T13:50:38.842Z,9.48
2023-02-06T13:54:02.491Z,9.38
2023-02-06T13:56:51.767Z,9.41
2023-02-06T13:59:28.318Z,9.47
2023-02-06T14:02:12.609Z,9.61
2023-02-06T14:04:45.272Z,9.50
2023-02-06T14:07:43.206Z,9.50
2023-02-06T14:10:55.281Z,9.48
2023-02-06T14:13:48.238Z,9.53
2023-02-06T14:16:42.538Z,9.67
2023-02-06T14:19:28.233Z,9.81
2023-02-06T14:22:12.696Z,9.81
2023-02-06T14:25:07.253Z,9.84
2023-02-06T14:27:56.965Z,9.56
2023-02-06T14:30:40.340Z,9.37
2023-02-06T14:33:49.500Z,9.49
2023-02-06T14:36:42.052Z,9.48
2023-02-06T14:39:52.463Z,9.42
2023-02-06T14:42:26.664Z,9.33
2023-02-06T14:45:00.983Z,9.23
2023-02-06T14:47:42.344Z,9.32
2023-02-06T14:50:20.835Z,9.15
2023-02-06T14:52:56.297Z,9.09
2023-02-06T14:55:35.653Z,8.95
2023-02-06T14:58:17.510Z,8.99
2023-02-06T15:00:45.943Z,9.04
2023-02-06T15:03:17.659Z,9.16
2023-02-06T15:05:46.925Z,9.04
2023-02-06T15:08:20.718Z,9.14
2023-02-06T15:11:04.102Z,9.30
2023-02-06T15:13:35.354Z,9.08
2023-02-06T15:16:06.985Z,9.13
2023-02-06T15:18:36.771Z,8.97
2023-02-06T15:21:08.658Z,9.10
2023-02-06T15:24:00.770Z,9.08
2023-02-06T15:26:41.253Z,9.21
2023-02-06T15:29:23.110Z,9.19
2023-02-06T15:31:54.771Z,9.02
2023-02-06T15:34:25.237Z,9.05
2023-02-06T15:36:53.861Z,8.91
2023-02-06T15:39:25.043Z,8.89
2023-02-06T15:41:54.494Z,8.84
2023-02-06T15:44:35.433Z,8.94
2023-02-06T15:47:11.941Z,8.95
2023-02-06T15:49:43.455Z,8.75
2023-02-06T15:52:15.176Z,8.78
2023-02-06T15:55:01.732Z,8.56
2023-02-06T15:57:35.352Z,8.54
2023-02-06T16:00:09.710Z,8.61
2023-02-06T16:02:41.646Z,8.51
2023-02-06T16:05:29.963Z,8.38
2023-02-06T16:08:03.111Z,8.28
2023-02-06T16:10:38.331Z,8.23
2023-02-06T16:13:12.244Z,8.12
2023-02-06T16:16:01.736Z,7.95
2023-02-06T16:18:34.153Z,7.75
2023-02-06T16:21:28.977Z,7.56
2023-02-06T16:24:17.738Z,7.55
2023-02-06T16:26:52.446Z,7.52
2023-02-06T16:29:26.933Z,7.58
2023-02-06T16:32:01.576Z,7.53
2023-02-06T16:34:37.233Z,7.52
2023-02-06T16:37:12.110Z,7.52
2023-02-06T16:39:43.187Z,7.54
2023-02-06T16:42:20.935Z,7.50
2023-02-06T16:44:53.378Z,7.47
2023-02-06T16:47:22.046Z,7.38
2023-02-06T16:49:50.983Z,7.26
2023-02-06T16:52:25.858Z,7.20
2023-02-06T16:54:56.509Z,7.15
2023-02-06T16:57:32.028Z,7.23
2023-02-06T17:00:00.584Z,7.21
2023-02-06T17:02:29.146Z,7.05
2023-02-06T17:04:57.305Z,6.90
2023-02-06T17:07:30.878Z,6.76
2023-02-06T17:09:59.572Z,6.65
2023-02-06T17:12:29.352Z,6.60
2023-02-06T17:14:58.468Z,6.46
2023-02-06T17:17:26.998Z,6.38
2023-02-06T17:19:55.080Z,6.32
2023-02-06T17:22:23.283Z,6.27
2023-02-06T17:24:52.992Z,6.15
2023-02-06T17:27:23.226Z,6.06
2023-02-06T17:29:53.752Z,5.99
2023-02-06T17:32:22.881Z,5.94
2023-02-06T17:34:54.213Z,5.84
2023-02-06T17:37:23.011Z,5.69
2023-02-06T17:39:52.255Z,5.60
2023-02-06T17:42:23.249Z,5.57
2023-02-06T17:44:52.750Z,5.52
2023-02-06T17:47:22.166Z,5.57
2023-02-06T17:49:50.795Z,5.56
2023-02-06T17:52:18.902Z,5.54
2023-02-06T17:54:46.981Z,5.51
2023-02-06T17:57:15.133Z,5.48
2023-02-06T17:59:43.035Z,5.46
2023-02-06T18:02:14.724Z,5.43
2023-02-06T18:04:50.478Z,5.39
2023-02-06T18:07:19.495Z,5.32
2023-02-06T18:09:48.004Z,5.20
2023-02-06T18:12:16.590Z,5.17
2023-02-06T18:14:44.972Z,5.24
2023-02-06T18:17:18.087Z,5.23
2023-02-06T18:19:48.253Z,5.28
2023-02-06T18:22:18.813Z,5.39
2023-02-06T18:24:48.764Z,5.54
2023-02-06T18:27:18.626Z,5.60
2023-02-06T18:29:50.061Z,5.70
2023-02-06T18:32:20.121Z,5.80
2023-02-06T18:34:48.904Z,5.90
2023-02-06T18:37:17.149Z,5.81
2023-02-06T18:39:45.452Z,5.92
2023-02-06T18:42:32.357Z,6.04
2023-02-06T18:45:04.129Z,6.04
2023-02-06T18:47:33.936Z,6.04
2023-02-06T18:50:02.352Z,5.98
2023-02-06T18:52:30.576Z,5.93
2023-02-06T18:54:59.079Z,5.89
2023-02-06T18:57:29.808Z,5.84
2023-02-06T18:59:58.878Z,5.73
2023-02-06T19:02:27.278Z,5.67
2023-02-06T19:04:59.636Z,5.62
2023-02-06T19:07:28.780Z,5.56
2023-02-06T19:09:58.695Z,5.51
2023-02-06T19:12:28.736Z,5.47
2023-02-06T19:14:58.057Z,5.43
2023-02-06T19:17:28.410Z,5.35
2023-02-06T19:19:58.212Z,5.29
2023-02-06T19:22:26.433Z,5.19
2023-02-06T19:24:54.847Z,5.12
2023-02-06T19:27:23.367Z,5.01
2023-02-06T19:29:51.677Z,4.77
2023-02-06T19:32:19.918Z,4.73
2023-02-06T19:34:48.341Z,4.75
2023-02-06T19:37:18.284Z,4.74
2023-02-06T19:39:46.633Z,4.67
2023-02-06T19:42:16.871Z,4.60
2023-02-06T19:44:45.691Z,4.55
2023-02-06T19:47:13.815Z,4.49
2023-02-06T19:49:43.679Z,4.55
2023-02-06T19:52:14.505Z,4.57
2023-02-06T19:54:44.485Z,4.52
2023-02-06T19:57:12.645Z,4.51
2023-02-06T19:59:41.215Z,4.53
2023-02-06T20:02:14.266Z,4.49
2023-02-06T20:04:43.061Z,4.39
2023-02-06T20:07:11.151Z,4.35
2023-02-06T20:09:42.020Z,4.28
2023-02-06T20:12:12.633Z,4.22
2023-02-06T20:14:40.810Z,4.14
2023-02-06T20:17:08.811Z,4.08
2023-02-06T20:19:36.875Z,4.07
2023-02-06T20:22:04.979Z,4.04
2023-02-06T20:24:33.179Z,3.99
2023-02-06T20:27:07.318Z,3.96
2023-02-06T20:29:40.355Z,3.96
2023-02-06T20:32:08.789Z,4.02
2023-02-06T20:34:36.847Z,4.06
2023-02-06T20:37:04.953Z,4.06
2023-02-06T20:39:33.433Z,3.98
2023-02-06T20:42:01.949Z,3.86
2023-02-06T20:44:30.982Z,3.79
2023-02-06T20:47:01.247Z,3.74
2023-02-06T20:49:31.115Z,3.71
2023-02-06T20:51:59.789Z,3.59
2023-02-06T20:54:28.237Z,3.50
2023-02-06T20:56:56.547Z,3.54
2023-02-06T20:59:24.669Z,3.49
2023-02-06T21:01:52.806Z,3.44
2023-02-06T21:04:22.405Z,3.42
2023-02-06T21:06:50.747Z,3.41
2023-02-06T21:09:19.225Z,3.45
2023-02-06T21:11:50.145Z,3.38
2023-02-06T21:14:19.532Z,3.37
2023-02-06T21:16:48.863Z,3.36
2023-02-06T21:19:21.250Z,3.31
2023-02-06T21:21:51.025Z,3.24
2023-02-06T21:24:19.330Z,3.23
2023-02-06T21:26:47.481Z,3.21
2023-02-06T21:29:16.657Z,3.10
2023-02-06T21:31:46.216Z,3.08
2023-02-06T21:34:17.833Z,3.06
2023-02-06T21:36:46.526Z,3.06
2023-02-06T21:39:19.338Z,3.12
2023-02-06T21:41:51.891Z,2.99
2023-02-06T21:44:20.694Z,2.94
2023-02-06T21:46:48.726Z,2.92
2023-02-06T21:49:17.578Z,2.96
2023-02-06T21:51:45.830Z,2.92
2023-02-06T21:54:14.040Z,2.91
2023-02-06T21:56:44.050Z,2.89
2023-02-06T21:59:12.801Z,2.82
2023-02-06T22:01:41.194Z,2.81
2023-02-06T22:04:11.808Z,2.57
2023-02-06T22:06:39.949Z,2.52
2023-02-06T22:09:15.151Z,2.54
2023-02-06T22:11:45.389Z,2.47
2023-02-06T22:14:17.010Z,2.44
2023-02-06T22:16:48.005Z,2.38
2023-02-06T22:19:17.046Z,2.29
2023-02-06T22:21:45.853Z,2.26
2023-02-06T22:24:14.656Z,2.19
2023-02-06T22:26:44.802Z,2.23
2023-02-06T22:29:16.177Z,2.16
2023-02-06T22:31:45.666Z,2.25
2023-02-06T22:34:16.486Z,2.19
2023-02-06T22:36:44.911Z,2.11
2023-02-06T22:39:15.092Z,2.00
2023-02-06T22:41:45.995Z,1.94
2023-02-06T22:44:16.514Z,1.88
2023-02-06T22:46:47.765Z,1.86
2023-02-06T22:49:17.474Z,1.86
2023-02-06T22:51:45.949Z,1.91
2023-02-06T22:54:15.067Z,1.93
2023-02-06T22:56:45.026Z,1.89
2023-02-06T22:59:19.406Z,1.87
2023-02-06T23:01:51.275Z,1.98
2023-02-06T23:04:22.227Z,1.92
2023-02-06T23:06:51.476Z,1.90
2023-02-06T23:09:22.435Z,1.84
2023-02-06T23:11:52.866Z,1.70
2023-02-06T23:14:21.338Z,1.72
2023-02-06T23:16:49.274Z,1.69
2023-02-06T23:19:19.109Z,1.67
2023-02-06T23:21:49.666Z,1.67
2023-02-06T23:24:18.326Z,1.65
2023-02-06T23:26:49.158Z,1.58
2023-02-06T23:29:20.038Z,1.45
2023-02-06T23:31:49.743Z,1.46
2023-02-06T23:34:20.267Z,1.38
2023-02-06T23:36:48.212Z,1.40
2023-02-06T23:39:16.147Z,1.25
2023-02-06T23:41:43.970Z,1.30
2023-02-06T23:44:12.251Z,1.24
2023-02-06T23:46:41.813Z,1.28
2023-02-06T23:49:10.287Z,1.23
2023-02-06T23:51:38.478Z,1.12
2023-02-06T23:54:08.250Z,0.99
2023-02-06T23:56:36.912Z,0.92
2023-02-06T23:59:05.841Z,0.80
